CXA8267 ZSFZ-ZLLL
Flight info
| Callsign | CXA8267 |
|---|---|
| Flight time | N/A |
| Altitude | 35100 |
| Route | BZ A470 AKDIM A470 SAPIN W95 UPLEL R343 HFE B208 FYG W128 EPGOS W594 MILOM DCT DOVOP W541 ADNEN W94 QIY W213 OVTIB |
| Aircraft | B738/M-SDE2E3FGHIRWXY/LB1 |
Departure
| Time | N/A |
|---|---|
| Airport | Fuzhou Changle International Airport (ZSFZ) |
Arrival
| Time | 2026-04-14 00:38 |
|---|---|
| Airport | Lanzhou Zhongchuan International Airport (ZLLL) |
| Time | Latitude | Longitude | Altitude | Speed | Heading |
|---|---|---|---|---|---|
| 2026-04-13 22:22 | 31.68402 | 118.58206 | 35068 ft | 364 kts | 270° |
| 2026-04-13 22:23 | 31.68589 | 118.55645 | 35066 ft | 363 kts | 270° |
| 2026-04-13 22:23 | 31.69013 | 118.49725 | 35067 ft | 366 kts | 270° |
| 2026-04-13 22:24 | 31.69442 | 118.43738 | 35067 ft | 363 kts | 270° |
| 2026-04-13 22:24 | 31.69864 | 118.37826 | 35069 ft | 365 kts | 270° |
| 2026-04-13 22:25 | 31.70284 | 118.31860 | 35069 ft | 365 kts | 270° |
| 2026-04-13 22:25 | 31.70696 | 118.26009 | 35073 ft | 364 kts | 270° |
| 2026-04-13 22:26 | 31.71095 | 118.20233 | 35072 ft | 365 kts | 270° |
| 2026-04-13 22:26 | 31.71506 | 118.14312 | 35069 ft | 364 kts | 270° |
| 2026-04-13 22:27 | 31.71920 | 118.08368 | 35070 ft | 363 kts | 270° |
| 2026-04-13 22:27 | 31.72358 | 118.02425 | 35067 ft | 364 kts | 270° |
| 2026-04-13 22:28 | 31.72794 | 117.96543 | 35076 ft | 364 kts | 270° |
| 2026-04-13 22:28 | 31.73229 | 117.90604 | 35077 ft | 364 kts | 270° |
| 2026-04-13 22:29 | 31.73663 | 117.84631 | 35082 ft | 366 kts | 270° |
| 2026-04-13 22:29 | 31.74089 | 117.78720 | 35085 ft | 364 kts | 270° |
| 2026-04-13 22:30 | 31.74507 | 117.72807 | 35081 ft | 366 kts | 270° |
| 2026-04-13 22:30 | 31.74929 | 117.66846 | 35089 ft | 365 kts | 270° |
| 2026-04-13 22:31 | 31.75349 | 117.60890 | 35083 ft | 364 kts | 270° |
| 2026-04-13 22:31 | 31.75763 | 117.54938 | 35079 ft | 366 kts | 270° |
| 2026-04-13 22:32 | 31.76184 | 117.48939 | 35080 ft | 366 kts | 270° |
| 2026-04-13 22:32 | 31.76599 | 117.42946 | 35079 ft | 366 kts | 270° |
| 2026-04-13 22:33 | 31.77010 | 117.36977 | 35090 ft | 367 kts | 270° |
| 2026-04-13 22:33 | 31.78093 | 117.31044 | 35087 ft | 378 kts | 283° |
| 2026-04-13 22:34 | 31.82478 | 117.22989 | 35093 ft | 401 kts | 298° |
| 2026-04-13 22:34 | 31.84285 | 117.20469 | 35091 ft | 399 kts | 300° |
| 2026-04-13 22:35 | 31.87945 | 117.15524 | 35087 ft | 402 kts | 300° |
| 2026-04-13 22:35 | 31.91610 | 117.10552 | 35090 ft | 398 kts | 300° |
| 2026-04-13 22:36 | 31.95060 | 117.05810 | 35094 ft | 399 kts | 300° |
| 2026-04-13 22:36 | 31.98677 | 117.00793 | 35088 ft | 398 kts | 300° |
| 2026-04-13 22:37 | 32.02262 | 116.95812 | 35089 ft | 399 kts | 300° |
| 2026-04-13 22:37 | 32.05892 | 116.90784 | 35090 ft | 399 kts | 300° |
| 2026-04-13 22:38 | 32.09511 | 116.85764 | 35093 ft | 401 kts | 300° |
| 2026-04-13 22:38 | 32.13126 | 116.80742 | 35090 ft | 400 kts | 300° |
| 2026-04-13 22:39 | 32.16719 | 116.75749 | 35095 ft | 397 kts | 300° |
| 2026-04-13 22:39 | 32.20325 | 116.70699 | 35096 ft | 403 kts | 300° |
| 2026-04-13 22:40 | 32.23866 | 116.65621 | 35099 ft | 398 kts | 299° |
| 2026-04-13 22:40 | 32.27388 | 116.60517 | 35100 ft | 399 kts | 300° |
| 2026-04-13 22:41 | 32.30894 | 116.55438 | 35101 ft | 398 kts | 300° |
| 2026-04-13 22:41 | 32.34414 | 116.50338 | 35105 ft | 403 kts | 300° |
| 2026-04-13 22:42 | 32.37982 | 116.45175 | 35105 ft | 401 kts | 300° |
| 2026-04-13 22:42 | 32.41522 | 116.40055 | 35104 ft | 403 kts | 300° |
| 2026-04-13 22:43 | 32.45024 | 116.34979 | 35112 ft | 401 kts | 300° |
| 2026-04-13 22:43 | 32.48612 | 116.29765 | 35109 ft | 403 kts | 300° |
| 2026-04-13 22:44 | 32.52147 | 116.24625 | 35112 ft | 401 kts | 299° |
| 2026-04-13 22:44 | 32.55679 | 116.19477 | 35104 ft | 402 kts | 299° |
| 2026-04-13 22:45 | 32.59262 | 116.14320 | 35109 ft | 405 kts | 301° |
| 2026-04-13 22:45 | 32.62886 | 116.09243 | 35110 ft | 404 kts | 301° |
| 2026-04-13 22:46 | 32.66544 | 116.04126 | 35113 ft | 403 kts | 301° |
| 2026-04-13 22:46 | 32.70178 | 115.99016 | 35112 ft | 405 kts | 301° |
| 2026-04-13 22:47 | 32.73816 | 115.93880 | 35115 ft | 403 kts | 301° |
| 2026-04-13 22:47 | 32.77425 | 115.88779 | 35113 ft | 406 kts | 301° |
| 2026-04-13 22:48 | 32.81093 | 115.83575 | 35110 ft | 404 kts | 301° |
| 2026-04-13 22:48 | 32.84700 | 115.78446 | 35119 ft | 405 kts | 301° |
| 2026-04-13 22:49 | 32.88041 | 115.73088 | 35100 ft | 394 kts | 293° |
| 2026-04-13 22:49 | 32.90354 | 115.67237 | 35101 ft | 388 kts | 285° |
| 2026-04-13 22:50 | 32.92231 | 115.61217 | 35104 ft | 389 kts | 284° |
| 2026-04-13 22:50 | 32.94088 | 115.55127 | 35113 ft | 388 kts | 284° |
| 2026-04-13 22:51 | 32.95984 | 115.49045 | 35109 ft | 390 kts | 285° |
| 2026-04-13 22:51 | 32.98418 | 115.43237 | 35108 ft | 398 kts | 296° |
| 2026-04-13 22:52 | 33.01856 | 115.37912 | 35110 ft | 405 kts | 302° |
| 2026-04-13 22:52 | 33.05608 | 115.32813 | 35110 ft | 406 kts | 303° |
| 2026-04-13 22:53 | 33.09386 | 115.27742 | 35108 ft | 407 kts | 302° |
| 2026-04-13 22:53 | 33.12441 | 115.23598 | 35124 ft | 410 kts | 303° |
| 2026-04-13 22:54 | 33.16190 | 115.18480 | 35123 ft | 407 kts | 303° |
| 2026-04-13 22:54 | 33.19906 | 115.13371 | 35132 ft | 408 kts | 302° |
| 2026-04-13 22:55 | 33.23624 | 115.08247 | 35129 ft | 405 kts | 303° |
| 2026-04-13 22:55 | 33.27353 | 115.03085 | 35127 ft | 409 kts | 302° |
| 2026-04-13 22:56 | 33.31079 | 114.97935 | 35129 ft | 409 kts | 303° |
| 2026-04-13 22:56 | 33.34779 | 114.92821 | 35120 ft | 405 kts | 303° |
| 2026-04-13 22:57 | 33.38470 | 114.87705 | 35123 ft | 408 kts | 303° |
| 2026-04-13 22:57 | 33.42177 | 114.82561 | 35112 ft | 404 kts | 303° |
| 2026-04-13 22:58 | 33.45847 | 114.77378 | 35129 ft | 404 kts | 301° |
| 2026-04-13 22:58 | 33.48871 | 114.71802 | 35133 ft | 396 kts | 291° |
| 2026-04-13 22:59 | 33.51001 | 114.65726 | 35126 ft | 390 kts | 285° |
| 2026-04-13 22:59 | 33.52884 | 114.59605 | 35125 ft | 392 kts | 285° |
| 2026-04-13 23:00 | 33.54760 | 114.53504 | 35126 ft | 389 kts | 286° |
| 2026-04-13 23:00 | 33.55711 | 114.50441 | 34943 ft | 389 kts | 286° |
| 2026-04-13 23:00 | 33.56663 | 114.47392 | 35145 ft | 392 kts | 285° |
| 2026-04-13 23:01 | 33.58577 | 114.41281 | 35092 ft | 388 kts | 286° |
| 2026-04-13 23:01 | 33.60487 | 114.35176 | 35134 ft | 394 kts | 286° |
| 2026-04-13 23:02 | 33.62410 | 114.29035 | 35138 ft | 390 kts | 285° |
| 2026-04-13 23:02 | 33.64323 | 114.22910 | 35120 ft | 391 kts | 285° |
| 2026-04-13 23:03 | 33.66231 | 114.16784 | 35125 ft | 393 kts | 286° |
| 2026-04-13 23:03 | 33.68152 | 114.10626 | 35146 ft | 393 kts | 285° |
| 2026-04-13 23:04 | 33.70052 | 114.04481 | 35138 ft | 392 kts | 284° |
| 2026-04-13 23:04 | 33.71607 | 113.98208 | 35127 ft | 390 kts | 281° |
| 2026-04-13 23:05 | 33.72932 | 113.91919 | 35139 ft | 390 kts | 280° |
| 2026-04-13 23:05 | 33.74275 | 113.85592 | 35132 ft | 389 kts | 281° |
| 2026-04-13 23:06 | 33.75644 | 113.79261 | 35127 ft | 390 kts | 281° |
| 2026-04-13 23:06 | 33.77027 | 113.72928 | 35149 ft | 391 kts | 281° |
| 2026-04-13 23:07 | 33.78416 | 113.66583 | 35128 ft | 390 kts | 281° |
| 2026-04-13 23:07 | 33.79795 | 113.60268 | 35125 ft | 390 kts | 281° |
| 2026-04-13 23:08 | 33.81180 | 113.53912 | 35137 ft | 390 kts | 281° |
| 2026-04-13 23:08 | 33.82554 | 113.47584 | 35135 ft | 389 kts | 281° |
| 2026-04-13 23:09 | 33.83926 | 113.41252 | 35134 ft | 393 kts | 281° |
| 2026-04-13 23:09 | 33.85247 | 113.35154 | 35131 ft | 391 kts | 281° |
| 2026-04-13 23:10 | 33.86613 | 113.28804 | 35136 ft | 393 kts | 280° |
| 2026-04-13 23:10 | 33.87986 | 113.22405 | 35131 ft | 393 kts | 281° |
| 2026-04-13 23:11 | 33.89355 | 113.16022 | 35133 ft | 393 kts | 281° |
| 2026-04-13 23:11 | 33.90726 | 113.09613 | 35130 ft | 395 kts | 281° |
| 2026-04-13 23:12 | 33.92102 | 113.03158 | 35132 ft | 393 kts | 281° |
| 2026-04-13 23:12 | 33.93454 | 112.96796 | 35131 ft | 394 kts | 281° |
| 2026-04-13 23:13 | 33.94819 | 112.90370 | 35134 ft | 396 kts | 280° |
| 2026-04-13 23:13 | 33.96196 | 112.83856 | 35134 ft | 396 kts | 280° |
| 2026-04-13 23:14 | 33.97543 | 112.77463 | 35136 ft | 395 kts | 281° |
| 2026-04-13 23:14 | 33.98900 | 112.71040 | 35141 ft | 396 kts | 281° |
| 2026-04-13 23:15 | 34.00268 | 112.64566 | 35140 ft | 396 kts | 281° |
| 2026-04-13 23:15 | 34.01618 | 112.58144 | 35141 ft | 395 kts | 281° |
| 2026-04-13 23:16 | 34.02964 | 112.51691 | 35137 ft | 395 kts | 280° |
| 2026-04-13 23:16 | 34.04303 | 112.45253 | 35136 ft | 396 kts | 281° |
| 2026-04-13 23:17 | 34.05642 | 112.38797 | 35135 ft | 395 kts | 280° |
| 2026-04-13 23:17 | 34.06979 | 112.32327 | 35134 ft | 396 kts | 280° |
| 2026-04-13 23:18 | 34.08308 | 112.25880 | 35135 ft | 395 kts | 279° |
| 2026-04-13 23:18 | 34.09631 | 112.19439 | 35143 ft | 395 kts | 280° |
| 2026-04-13 23:19 | 34.10961 | 112.12952 | 35138 ft | 395 kts | 279° |
| 2026-04-13 23:19 | 34.12273 | 112.06538 | 35133 ft | 395 kts | 280° |
| 2026-04-13 23:20 | 34.13590 | 112.00075 | 35134 ft | 395 kts | 279° |
| 2026-04-13 23:20 | 34.14903 | 111.93616 | 35140 ft | 395 kts | 279° |
| 2026-04-13 23:21 | 34.16213 | 111.87154 | 35140 ft | 393 kts | 279° |
| 2026-04-13 23:21 | 34.17517 | 111.80693 | 35146 ft | 397 kts | 280° |
| 2026-04-13 23:22 | 34.18823 | 111.74217 | 35153 ft | 395 kts | 279° |
| 2026-04-13 23:22 | 34.20123 | 111.67744 | 35150 ft | 395 kts | 280° |
| 2026-04-13 23:23 | 34.21423 | 111.61259 | 35143 ft | 395 kts | 279° |
| 2026-04-13 23:23 | 34.22716 | 111.54824 | 35143 ft | 395 kts | 279° |
| 2026-04-13 23:24 | 34.24021 | 111.48296 | 35141 ft | 395 kts | 279° |
| 2026-04-13 23:24 | 34.25953 | 111.38571 | 35139 ft | 396 kts | 279° |
| 2026-04-13 23:25 | 34.27240 | 111.32063 | 35143 ft | 397 kts | 279° |
| 2026-04-13 23:25 | 34.28524 | 111.25539 | 35142 ft | 397 kts | 278° |
| 2026-04-13 23:26 | 34.29792 | 111.19094 | 35148 ft | 397 kts | 279° |
| 2026-04-13 23:26 | 34.31068 | 111.12578 | 35145 ft | 395 kts | 279° |
| 2026-04-13 23:27 | 34.32345 | 111.06036 | 35149 ft | 397 kts | 278° |
| 2026-04-13 23:27 | 34.33605 | 110.99567 | 35148 ft | 395 kts | 278° |
| 2026-04-13 23:28 | 34.34872 | 110.93038 | 35145 ft | 395 kts | 278° |
| 2026-04-13 23:28 | 34.36132 | 110.86523 | 35148 ft | 396 kts | 279° |
| 2026-04-13 23:29 | 34.37389 | 110.80009 | 35148 ft | 396 kts | 279° |
| 2026-04-13 23:29 | 34.38642 | 110.73499 | 35147 ft | 397 kts | 279° |
| 2026-04-13 23:30 | 34.39892 | 110.66981 | 35149 ft | 399 kts | 278° |
| 2026-04-13 23:30 | 34.41147 | 110.60422 | 35157 ft | 399 kts | 279° |
| 2026-04-13 23:31 | 34.42403 | 110.53837 | 35157 ft | 398 kts | 278° |
| 2026-04-13 23:31 | 34.43648 | 110.47282 | 35151 ft | 398 kts | 278° |
| 2026-04-13 23:32 | 34.44892 | 110.40723 | 35150 ft | 397 kts | 279° |
| 2026-04-13 23:32 | 34.46128 | 110.34181 | 35156 ft | 399 kts | 278° |
| 2026-04-13 23:33 | 34.47369 | 110.27583 | 35152 ft | 398 kts | 278° |
| 2026-04-13 23:33 | 34.48603 | 110.21004 | 35156 ft | 399 kts | 278° |
| 2026-04-13 23:34 | 34.49842 | 110.14387 | 35156 ft | 399 kts | 278° |
| 2026-04-13 23:34 | 34.51065 | 110.07832 | 35165 ft | 399 kts | 278° |
| 2026-04-13 23:35 | 34.52296 | 110.01206 | 35173 ft | 401 kts | 278° |
| 2026-04-13 23:35 | 34.53511 | 109.94627 | 35162 ft | 400 kts | 278° |
| 2026-04-13 23:36 | 34.54726 | 109.88023 | 35164 ft | 400 kts | 278° |
| 2026-04-13 23:36 | 34.55945 | 109.81383 | 35157 ft | 401 kts | 278° |
| 2026-04-13 23:37 | 34.57153 | 109.74791 | 35153 ft | 400 kts | 278° |
| 2026-04-13 23:37 | 34.58364 | 109.68160 | 35157 ft | 401 kts | 278° |
| 2026-04-13 23:38 | 34.59571 | 109.61530 | 35159 ft | 402 kts | 278° |
| 2026-04-13 23:38 | 34.60776 | 109.54896 | 35157 ft | 401 kts | 278° |
| 2026-04-13 23:39 | 34.61975 | 109.48276 | 35158 ft | 402 kts | 278° |
| 2026-04-13 23:39 | 34.63172 | 109.41651 | 35163 ft | 402 kts | 278° |
| 2026-04-13 23:40 | 34.64360 | 109.35047 | 35159 ft | 401 kts | 278° |
| 2026-04-13 23:40 | 34.65554 | 109.28393 | 35160 ft | 401 kts | 277° |
| 2026-04-13 23:41 | 34.66740 | 109.21761 | 35159 ft | 402 kts | 277° |
| 2026-04-13 23:41 | 34.67916 | 109.15157 | 35166 ft | 401 kts | 277° |
| 2026-04-13 23:42 | 34.69102 | 109.08482 | 35172 ft | 401 kts | 278° |
| 2026-04-13 23:42 | 34.70282 | 109.01810 | 35175 ft | 403 kts | 278° |
| 2026-04-13 23:43 | 34.71452 | 108.95174 | 35178 ft | 403 kts | 277° |
| 2026-04-13 23:43 | 34.72624 | 108.88522 | 35174 ft | 401 kts | 277° |
| 2026-04-13 23:44 | 34.73789 | 108.81871 | 35181 ft | 403 kts | 277° |
| 2026-04-13 23:44 | 34.75024 | 108.75220 | 35186 ft | 405 kts | 281° |
| 2026-04-13 23:45 | 34.77381 | 108.68930 | 35186 ft | 418 kts | 297° |
| 2026-04-13 23:45 | 34.81031 | 108.63396 | 35187 ft | 422 kts | 304° |
| 2026-04-13 23:46 | 34.84998 | 108.58100 | 35182 ft | 423 kts | 306° |
| 2026-04-13 23:46 | 34.88995 | 108.52825 | 35194 ft | 424 kts | 306° |
| 2026-04-13 23:47 | 34.92983 | 108.47508 | 35199 ft | 422 kts | 306° |
| 2026-04-13 23:47 | 34.96943 | 108.42175 | 35208 ft | 424 kts | 305° |
| 2026-04-13 23:48 | 35.00902 | 108.36810 | 35209 ft | 423 kts | 305° |
| 2026-04-13 23:48 | 35.04843 | 108.31457 | 35205 ft | 423 kts | 304° |
| 2026-04-13 23:49 | 35.08801 | 108.26072 | 35205 ft | 421 kts | 304° |
| 2026-04-13 23:49 | 35.12720 | 108.20731 | 35196 ft | 421 kts | 304° |
| 2026-04-13 23:50 | 35.16605 | 108.15423 | 35190 ft | 421 kts | 304° |
| 2026-04-13 23:50 | 35.20530 | 108.10056 | 35189 ft | 419 kts | 304° |
| 2026-04-13 23:51 | 35.24403 | 108.04747 | 35190 ft | 421 kts | 304° |
| 2026-04-13 23:51 | 35.28326 | 107.99361 | 35187 ft | 420 kts | 304° |
| 2026-04-13 23:52 | 35.32195 | 107.94046 | 35190 ft | 419 kts | 304° |
| 2026-04-13 23:52 | 35.36114 | 107.88657 | 35204 ft | 420 kts | 304° |
| 2026-04-13 23:53 | 35.40041 | 107.83282 | 35205 ft | 422 kts | 304° |
| 2026-04-13 23:53 | 35.43984 | 107.77908 | 35211 ft | 419 kts | 304° |
| 2026-04-13 23:54 | 35.47947 | 107.72656 | 35216 ft | 423 kts | 308° |
| 2026-04-13 23:54 | 35.52923 | 107.68426 | 35221 ft | 444 kts | 327° |
| 2026-04-13 23:55 | 35.58925 | 107.65982 | 35221 ft | 455 kts | 336° |
| 2026-04-13 23:55 | 35.65089 | 107.64085 | 35227 ft | 457 kts | 338° |
| 2026-04-13 23:56 | 35.71271 | 107.62128 | 35226 ft | 451 kts | 332° |
| 2026-04-13 23:56 | 35.74048 | 107.60528 | 35231 ft | 435 kts | 319° |
| 2026-04-13 23:56 | 35.76405 | 107.58278 | 35231 ft | 422 kts | 308° |
| 2026-04-13 23:57 | 35.80039 | 107.52760 | 35233 ft | 410 kts | 296° |
| 2026-04-13 23:57 | 35.82628 | 107.46589 | 35231 ft | 398 kts | 284° |
| 2026-04-13 23:58 | 35.84136 | 107.40070 | 35240 ft | 393 kts | 279° |
| 2026-04-13 23:58 | 35.85417 | 107.33491 | 35237 ft | 394 kts | 278° |
| 2026-04-13 23:59 | 35.86061 | 107.30235 | 35046 ft | 387 kts | 279° |
| 2026-04-13 23:59 | 35.86711 | 107.27022 | 34805 ft | 377 kts | 279° |
| 2026-04-13 23:59 | 35.87333 | 107.23933 | 34565 ft | 368 kts | 279° |
| 2026-04-13 23:59 | 35.87939 | 107.20892 | 34324 ft | 359 kts | 278° |
| 2026-04-14 00:00 | 35.88521 | 107.17959 | 34080 ft | 350 kts | 278° |
| 2026-04-14 00:00 | 35.89095 | 107.15063 | 33810 ft | 342 kts | 278° |
| 2026-04-14 00:00 | 35.89652 | 107.12260 | 33547 ft | 334 kts | 278° |
| 2026-04-14 00:00 | 35.90196 | 107.09530 | 33286 ft | 326 kts | 279° |
| 2026-04-14 00:01 | 35.90745 | 107.06826 | 33018 ft | 319 kts | 279° |
| 2026-04-14 00:01 | 35.91280 | 107.04234 | 32757 ft | 312 kts | 279° |
| 2026-04-14 00:01 | 35.91812 | 107.01658 | 32487 ft | 304 kts | 279° |
| 2026-04-14 00:01 | 35.92327 | 106.99158 | 32223 ft | 299 kts | 280° |
| 2026-04-14 00:02 | 35.92833 | 106.96687 | 31972 ft | 298 kts | 280° |
| 2026-04-14 00:02 | 35.93341 | 106.94200 | 31719 ft | 301 kts | 280° |
| 2026-04-14 00:02 | 35.93852 | 106.91692 | 31456 ft | 302 kts | 281° |
| 2026-04-14 00:02 | 35.94368 | 106.89167 | 31199 ft | 302 kts | 281° |
| 2026-04-14 00:03 | 35.94876 | 106.86685 | 30940 ft | 301 kts | 281° |
| 2026-04-14 00:03 | 35.95389 | 106.84177 | 30689 ft | 301 kts | 281° |
| 2026-04-14 00:03 | 35.95902 | 106.81660 | 30432 ft | 302 kts | 281° |
| 2026-04-14 00:03 | 35.96415 | 106.79143 | 30172 ft | 304 kts | 282° |
| 2026-04-14 00:04 | 35.96929 | 106.76614 | 29904 ft | 304 kts | 282° |
| 2026-04-14 00:04 | 35.97441 | 106.74093 | 29650 ft | 305 kts | 282° |
| 2026-04-14 00:04 | 35.97958 | 106.71538 | 29395 ft | 308 kts | 282° |
| 2026-04-14 00:04 | 35.98480 | 106.68954 | 29137 ft | 309 kts | 282° |
| 2026-04-14 00:05 | 35.98995 | 106.66399 | 28882 ft | 310 kts | 282° |
| 2026-04-14 00:05 | 35.99517 | 106.63808 | 28622 ft | 311 kts | 282° |
| 2026-04-14 00:05 | 36.00046 | 106.61189 | 28353 ft | 314 kts | 282° |
| 2026-04-14 00:05 | 36.00498 | 106.58958 | 28150 ft | 316 kts | 282° |
| 2026-04-14 00:06 | 36.01032 | 106.56319 | 27889 ft | 316 kts | 282° |
| 2026-04-14 00:06 | 36.01564 | 106.53682 | 27636 ft | 317 kts | 282° |
| 2026-04-14 00:06 | 36.02098 | 106.51018 | 27381 ft | 319 kts | 282° |
| 2026-04-14 00:06 | 36.02622 | 106.48384 | 27126 ft | 320 kts | 282° |
| 2026-04-14 00:07 | 36.03159 | 106.45688 | 26865 ft | 322 kts | 282° |
| 2026-04-14 00:07 | 36.03693 | 106.43012 | 26622 ft | 324 kts | 282° |
| 2026-04-14 00:07 | 36.04234 | 106.40305 | 26367 ft | 325 kts | 282° |
| 2026-04-14 00:07 | 36.04779 | 106.37580 | 26113 ft | 326 kts | 282° |
| 2026-04-14 00:08 | 36.05325 | 106.34843 | 25862 ft | 328 kts | 282° |
| 2026-04-14 00:08 | 36.05866 | 106.32124 | 25607 ft | 330 kts | 282° |
| 2026-04-14 00:08 | 36.06416 | 106.29360 | 25354 ft | 331 kts | 282° |
| 2026-04-14 00:08 | 36.06966 | 106.26597 | 25106 ft | 332 kts | 282° |
| 2026-04-14 00:09 | 36.07517 | 106.23813 | 24851 ft | 334 kts | 282° |
| 2026-04-14 00:09 | 36.08073 | 106.21009 | 24593 ft | 335 kts | 282° |
| 2026-04-14 00:09 | 36.08659 | 106.18231 | 24340 ft | 338 kts | 283° |
| 2026-04-14 00:09 | 36.09289 | 106.15397 | 24093 ft | 341 kts | 284° |
| 2026-04-14 00:10 | 36.09927 | 106.12579 | 23834 ft | 342 kts | 284° |
| 2026-04-14 00:10 | 36.10575 | 106.09719 | 23586 ft | 344 kts | 284° |
| 2026-04-14 00:10 | 36.11192 | 106.06983 | 23335 ft | 345 kts | 284° |
| 2026-04-14 00:10 | 36.11840 | 106.04109 | 23073 ft | 346 kts | 284° |
| 2026-04-14 00:11 | 36.12485 | 106.01240 | 22818 ft | 347 kts | 284° |
| 2026-04-14 00:11 | 36.13123 | 105.98383 | 22558 ft | 347 kts | 284° |
| 2026-04-14 00:11 | 36.13762 | 105.95502 | 22297 ft | 348 kts | 284° |
| 2026-04-14 00:11 | 36.14402 | 105.92610 | 22044 ft | 349 kts | 284° |
| 2026-04-14 00:12 | 36.15038 | 105.89721 | 21790 ft | 350 kts | 284° |
| 2026-04-14 00:12 | 36.15682 | 105.86810 | 21531 ft | 350 kts | 284° |
| 2026-04-14 00:12 | 36.16324 | 105.83908 | 21267 ft | 352 kts | 284° |
| 2026-04-14 00:12 | 36.16972 | 105.80968 | 21015 ft | 353 kts | 284° |
| 2026-04-14 00:13 | 36.17617 | 105.78023 | 20762 ft | 354 kts | 285° |
| 2026-04-14 00:13 | 36.18257 | 105.75108 | 20505 ft | 355 kts | 285° |
| 2026-04-14 00:13 | 36.18912 | 105.72136 | 20247 ft | 354 kts | 285° |
| 2026-04-14 00:13 | 36.19552 | 105.69219 | 20000 ft | 355 kts | 285° |
| 2026-04-14 00:14 | 36.20201 | 105.66251 | 19747 ft | 358 kts | 285° |
| 2026-04-14 00:14 | 36.20851 | 105.63270 | 19494 ft | 357 kts | 285° |
| 2026-04-14 00:14 | 36.21500 | 105.60291 | 19243 ft | 360 kts | 285° |
| 2026-04-14 00:14 | 36.22155 | 105.57279 | 18994 ft | 361 kts | 285° |
| 2026-04-14 00:15 | 36.22803 | 105.54295 | 18736 ft | 361 kts | 285° |
| 2026-04-14 00:15 | 36.23453 | 105.51295 | 18490 ft | 364 kts | 285° |
| 2026-04-14 00:15 | 36.24108 | 105.48263 | 18245 ft | 364 kts | 285° |
| 2026-04-14 00:15 | 36.24765 | 105.45223 | 17996 ft | 366 kts | 285° |
| 2026-04-14 00:16 | 36.25418 | 105.42201 | 17753 ft | 366 kts | 285° |
| 2026-04-14 00:16 | 36.26085 | 105.39105 | 17503 ft | 368 kts | 285° |
| 2026-04-14 00:16 | 36.26738 | 105.36075 | 17258 ft | 368 kts | 285° |
| 2026-04-14 00:16 | 36.27404 | 105.32976 | 17009 ft | 369 kts | 285° |
| 2026-04-14 00:17 | 36.28056 | 105.29934 | 16768 ft | 371 kts | 285° |
| 2026-04-14 00:17 | 36.28719 | 105.26837 | 16521 ft | 370 kts | 285° |
| 2026-04-14 00:17 | 36.29377 | 105.23747 | 16274 ft | 372 kts | 285° |
| 2026-04-14 00:17 | 36.29919 | 105.21207 | 16072 ft | 373 kts | 285° |
| 2026-04-14 00:18 | 36.30585 | 105.18082 | 15822 ft | 373 kts | 285° |
| 2026-04-14 00:18 | 36.31251 | 105.14962 | 15571 ft | 374 kts | 285° |
| 2026-04-14 00:18 | 36.31921 | 105.11832 | 15319 ft | 376 kts | 285° |
| 2026-04-14 00:18 | 36.32585 | 105.08723 | 15070 ft | 378 kts | 285° |
| 2026-04-14 00:19 | 36.33260 | 105.05557 | 14817 ft | 379 kts | 285° |
| 2026-04-14 00:19 | 36.33935 | 105.02383 | 14563 ft | 380 kts | 285° |
| 2026-04-14 00:19 | 36.34603 | 104.99236 | 14315 ft | 381 kts | 285° |
| 2026-04-14 00:19 | 36.35233 | 104.96259 | 14084 ft | 381 kts | 285° |
| 2026-04-14 00:20 | 36.35908 | 104.93065 | 13836 ft | 380 kts | 285° |
| 2026-04-14 00:20 | 36.36578 | 104.89889 | 13589 ft | 380 kts | 285° |
| 2026-04-14 00:20 | 36.37237 | 104.86760 | 13344 ft | 379 kts | 285° |
| 2026-04-14 00:20 | 36.37906 | 104.83584 | 13097 ft | 378 kts | 285° |
| 2026-04-14 00:21 | 36.38563 | 104.80456 | 12851 ft | 376 kts | 285° |
| 2026-04-14 00:21 | 36.39223 | 104.77310 | 12605 ft | 373 kts | 285° |
| 2026-04-14 00:21 | 36.39876 | 104.74196 | 12361 ft | 373 kts | 285° |
| 2026-04-14 00:21 | 36.40533 | 104.71063 | 12114 ft | 372 kts | 285° |
| 2026-04-14 00:22 | 36.41179 | 104.67997 | 11987 ft | 370 kts | 285° |
| 2026-04-14 00:22 | 36.41818 | 104.64960 | 11986 ft | 371 kts | 285° |
| 2026-04-14 00:22 | 36.42491 | 104.61761 | 11985 ft | 372 kts | 285° |
| 2026-04-14 00:22 | 36.43139 | 104.58673 | 11946 ft | 377 kts | 285° |
| 2026-04-14 00:23 | 36.43914 | 104.55490 | 11693 ft | 381 kts | 291° |
| 2026-04-14 00:23 | 36.45101 | 104.52583 | 11445 ft | 380 kts | 302° |
| 2026-04-14 00:23 | 36.46610 | 104.49896 | 11193 ft | 378 kts | 307° |
| 2026-04-14 00:23 | 36.48230 | 104.47330 | 10946 ft | 378 kts | 309° |
| 2026-04-14 00:24 | 36.49889 | 104.44775 | 10695 ft | 375 kts | 309° |
| 2026-04-14 00:24 | 36.51476 | 104.42302 | 10463 ft | 375 kts | 308° |
| 2026-04-14 00:24 | 36.53003 | 104.39874 | 10234 ft | 374 kts | 308° |
| 2026-04-14 00:24 | 36.54584 | 104.37309 | 9996 ft | 374 kts | 308° |
| 2026-04-14 00:25 | 36.56132 | 104.34759 | 9857 ft | 360 kts | 307° |
| 2026-04-14 00:25 | 36.57604 | 104.32313 | 9857 ft | 339 kts | 307° |
| 2026-04-14 00:25 | 36.58987 | 104.30004 | 9858 ft | 320 kts | 306° |
| 2026-04-14 00:25 | 36.60278 | 104.27846 | 9856 ft | 303 kts | 306° |
| 2026-04-14 00:26 | 36.61499 | 104.25808 | 9856 ft | 286 kts | 307° |
| 2026-04-14 00:26 | 36.62658 | 104.23869 | 9858 ft | 272 kts | 306° |
| 2026-04-14 00:26 | 36.63787 | 104.21978 | 9859 ft | 271 kts | 306° |
| 2026-04-14 00:26 | 36.64920 | 104.20081 | 9854 ft | 271 kts | 306° |
| 2026-04-14 00:27 | 36.66043 | 104.18201 | 9850 ft | 271 kts | 306° |
| 2026-04-14 00:27 | 36.67177 | 104.16305 | 9849 ft | 272 kts | 306° |
| 2026-04-14 00:27 | 36.68301 | 104.14422 | 9849 ft | 272 kts | 306° |
| 2026-04-14 00:27 | 36.69429 | 104.12531 | 9849 ft | 272 kts | 306° |
| 2026-04-14 00:28 | 36.70552 | 104.10645 | 9849 ft | 272 kts | 306° |
| 2026-04-14 00:28 | 36.71693 | 104.08730 | 9850 ft | 272 kts | 307° |
| 2026-04-14 00:28 | 36.72813 | 104.06850 | 9847 ft | 272 kts | 307° |
| 2026-04-14 00:28 | 36.73950 | 104.04940 | 9844 ft | 273 kts | 307° |
| 2026-04-14 00:29 | 36.75087 | 104.03029 | 9844 ft | 273 kts | 307° |
| 2026-04-14 00:29 | 36.76223 | 104.01116 | 9841 ft | 273 kts | 307° |
| 2026-04-14 00:29 | 36.77354 | 103.99211 | 9841 ft | 272 kts | 307° |
| 2026-04-14 00:29 | 36.78404 | 103.97275 | 9849 ft | 273 kts | 299° |
| 2026-04-14 00:30 | 36.79004 | 103.95013 | 9857 ft | 274 kts | 276° |
| 2026-04-14 00:30 | 36.78983 | 103.92645 | 9865 ft | 275 kts | 266° |
| 2026-04-14 00:30 | 36.78804 | 103.90260 | 9866 ft | 275 kts | 265° |
| 2026-04-14 00:30 | 36.78639 | 103.87921 | 9869 ft | 276 kts | 267° |
| 2026-04-14 00:31 | 36.78509 | 103.85524 | 9877 ft | 277 kts | 268° |
| 2026-04-14 00:31 | 36.78406 | 103.83132 | 9872 ft | 276 kts | 268° |
| 2026-04-14 00:31 | 36.78315 | 103.80753 | 9881 ft | 275 kts | 268° |
| 2026-04-14 00:31 | 36.78227 | 103.78440 | 9876 ft | 258 kts | 268° |
| 2026-04-14 00:32 | 36.78063 | 103.74227 | 9879 ft | 226 kts | 269° |
| 2026-04-14 00:32 | 36.77988 | 103.72343 | 9876 ft | 213 kts | 268° |
| 2026-04-14 00:32 | 36.77916 | 103.70512 | 9877 ft | 212 kts | 269° |
| 2026-04-14 00:33 | 36.77842 | 103.68649 | 9881 ft | 213 kts | 269° |
| 2026-04-14 00:33 | 36.77748 | 103.66812 | 9877 ft | 213 kts | 264° |
| 2026-04-14 00:33 | 36.77315 | 103.65066 | 9882 ft | 215 kts | 238° |
| 2026-04-14 00:33 | 36.76207 | 103.63793 | 9896 ft | 218 kts | 208° |
| 2026-04-14 00:34 | 36.74784 | 103.63247 | 9898 ft | 211 kts | 187° |
| 2026-04-14 00:34 | 36.73332 | 103.63201 | 9903 ft | 200 kts | 179° |
| 2026-04-14 00:34 | 36.71991 | 103.63276 | 9925 ft | 183 kts | 178° |
| 2026-04-14 00:34 | 36.70735 | 103.63353 | 9744 ft | 180 kts | 178° |
| 2026-04-14 00:35 | 36.69491 | 103.63432 | 9421 ft | 175 kts | 178° |
| 2026-04-14 00:35 | 36.68311 | 103.63508 | 9213 ft | 169 kts | 178° |
| 2026-04-14 00:35 | 36.67116 | 103.63583 | 8984 ft | 172 kts | 178° |
| 2026-04-14 00:35 | 36.65928 | 103.63658 | 8746 ft | 170 kts | 178° |
| 2026-04-14 00:36 | 36.64738 | 103.63734 | 8514 ft | 170 kts | 178° |
| 2026-04-14 00:36 | 36.63551 | 103.63810 | 8283 ft | 169 kts | 178° |
| 2026-04-14 00:36 | 36.62373 | 103.63885 | 8056 ft | 169 kts | 178° |
| 2026-04-14 00:36 | 36.61201 | 103.63959 | 7829 ft | 168 kts | 178° |
| 2026-04-14 00:37 | 36.60075 | 103.64030 | 7611 ft | 168 kts | 178° |
| 2026-04-14 00:37 | 36.58921 | 103.64105 | 7390 ft | 167 kts | 177° |
| 2026-04-14 00:37 | 36.57362 | 103.64217 | 7078 ft | 165 kts | 177° |
| 2026-04-14 00:37 | 36.56601 | 103.64262 | 6957 ft | 166 kts | 178° |
| 2026-04-14 00:38 | 36.55426 | 103.64332 | 6717 ft | 168 kts | 177° |
| 2026-04-14 00:38 | 36.54260 | 103.64406 | 6504 ft | 166 kts | 178° |
| 2026-04-14 00:38 | 36.53223 | 103.64464 | 6391 ft | 148 kts | 177° |
| 2026-04-14 00:38 | 36.52805 | 103.64490 | 6383 ft | 12 kts | 176° |
| 2026-04-14 00:39 | 36.52797 | 103.64490 | 6382 ft | 0 kts | 176° |